Data for 09/17/2015

Time Sea-Level Adjusted Pressure Absolute Pressure Temperature Relative Humidity Dew Point   
(mb) (inHg) (mb) (inHg) (C) (F) (%) (C) (F)
00:05 1017 30.03 846 24.98 5.4 41.6 87 3.3 38
00:10 1017 30.03 846 24.98 5.3 41.6 86 3.2 37.7
00:15 1017 30.03 846 24.98 5.4 41.7 87 3.3 38
00:20 1017 30.03 847 25.01 5.4 41.6 86 3.2 37.8
00:25 1017 30.03 847 25.01 5.4 41.7 86 3.2 37.8
00:30 1018 30.06 847 25.01 5.4 41.8 85 3.1 37.5
00:35 1017 30.03 847 25.01 5.5 41.9 85 3.2 37.7
00:40 1017 30.03 847 25.01 5.5 41.9 85 3.1 37.7
00:45 1017 30.03 847 25.01 5.4 41.8 85 3.1 37.7
00:50 1017 30.03 847 25.01 5.5 41.8 85 3.1 37.7
00:55 1018 30.06 847 25.01 5.6 42 85 3.3 37.9
01:00 1018 30.06 847 25.01 5.5 42 85 3.3 37.9
01:05 1018 30.06 847 25.01 5.5 41.9 86 3.3 38
01:10 1018 30.06 847 25.01 5.5 41.8 87 3.4 38.1
01:15 1018 30.06 847 25.01 5.4 41.7 87 3.4 38.2
01:20 1018 30.06 847 25.01 5.2 41.4 88 3.3 38
01:25 1018 30.06 847 25.01 5.2 41.3 88 3.4 38
01:30 1018 30.06 847 25.01 5.1 41.1 88 3.2 37.7
01:35 1018 30.06 847 25.01 5.1 41.1 88 3.2 37.7
01:40 1018 30.06 847 25.01 5 41 88 3.2 37.7
01:45 1018 30.06 847 25.01 4.9 40.8 89 3.2 37.8
01:50 1018 30.06 847 25.01 4.8 40.7 90 3.3 37.9
01:55 1018 30.06 847 25.01 4.8 40.6 90 3.3 37.9
02:00 1018 30.06 847 25.01 4.7 40.4 90 3.2 37.8
02:05 1018 30.06 847 25.01 4.5 40.2 91 3.2 37.7
02:10 1018 30.06 847 25.01 4.5 40.1 91 3.1 37.6
02:15 1018 30.06 847 25.01 4.4 40 91 3.1 37.6
02:20 1018 30.06 847 25.01 4.3 39.8 91 3 37.4
02:25 1018 30.06 847 25.01 4.2 39.6 92 3 37.3
02:30 1018 30.06 847 25.01 4.1 39.4 92 3 37.3
02:35 1018 30.06 847 25.01 4 39.2 92 2.9 37.1
02:40 1018 30.06 847 25.01 4 39.2 92 2.8 37.1
02:45 1018 30.06 847 25.01 3.8 38.9 92 2.7 36.9
02:50 1018 30.06 847 25.01 3.7 38.7 93 2.6 36.7
02:55 1018 30.06 847 25.01 3.8 38.8 92 2.6 36.7
03:00 1018 30.06 847 25.01 3.8 38.9 92 2.7 36.8
03:05 1018 30.06 847 25.01 3.8 38.9 92 2.6 36.7
03:10 1018 30.06 847 25.01 3.7 38.7 92 2.5 36.5
03:15 1018 30.06 847 25.01 3.6 38.6 92 2.5 36.4
03:20 1018 30.06 847 25.01 3.6 38.4 92 2.4 36.3
03:25 1018 30.06 847 25.01 3.6 38.5 92 2.5 36.4
03:30 1018 30.06 847 25.01 3.6 38.5 92 2.5 36.4
03:35 1018 30.06 847 25.01 3.7 38.7 91 2.4 36.4
03:40 1018 30.06 847 25.01 3.7 38.7 91 2.4 36.3
03:45 1018 30.06 847 25.01 3.6 38.4 91 2.2 36
03:50 1018 30.06 847 25.01 3.4 38.2 92 2.2 36
03:55 1018 30.06 847 25.01 3.3 37.9 92 2.1 35.8
04:00 1018 30.06 847 25.01 3.2 37.8 92 2.1 35.8
04:05 1018 30.06 847 25.01 3.2 37.8 92 2 35.6
04:10 1018 30.06 847 25.01 3.3 38 91 2 35.6
04:15 1018 30.06 847 25.01 3.5 38.2 90 2 35.6
04:20 1018 30.06 847 25.01 3.5 38.3 90 2.1 35.7
04:25 1018 30.06 847 25.01 3.5 38.3 90 2 35.6
04:30 1018 30.06 847 25.01 3.4 38.1 90 2 35.5
04:35 1018 30.06 847 25.01 3.3 38 90 1.9 35.4
04:40 1018 30.06 847 25.01 3.3 38 90 1.8 35.3
04:45 1018 30.06 847 25.01 3.3 38 90 1.8 35.3
04:50 1018 30.06 847 25.01 3.5 38.3 89 1.9 35.4
04:55 1018 30.06 847 25.01 3.8 38.8 89 2.1 35.7
05:00 1018 30.06 847 25.01 4.1 39.4 88 2.2 36
05:05 1018 30.06 847 25.01 4.1 39.4 86 2 35.5
05:10 1018 30.06 847 25.01 3.8 38.9 87 1.8 35.2
05:15 1018 30.06 847 25.01 3.6 38.5 88 1.8 35.3
05:20 1018 30.06 847 25.01 3.6 38.4 89 1.9 35.4
05:25 1018 30.06 847 25.01 3.7 38.7 88 1.9 35.3
05:30 1018 30.06 847 25.01 3.8 38.9 87 1.9 35.4
05:35 1018 30.06 847 25.01 3.6 38.5 88 1.8 35.3
05:40 1018 30.06 847 25.01 3.5 38.3 89 1.9 35.4
05:45 1018 30.06 847 25.01 3.5 38.3 89 1.8 35.3
05:50 1018 30.06 847 25.01 3.6 38.5 88 1.8 35.3
05:55 1018 30.06 847 25.01 3.8 38.8 86 1.7 35.1
06:00 1018 30.06 847 25.01 3.8 38.9 86 1.8 35.2
06:05 1018 30.06 847 25.01 3.8 38.8 87 1.8 35.2
06:10 1018 30.06 847 25.01 3.6 38.5 87 1.7 35.1
06:15 1018 30.06 847 25.01 3.6 38.5 88 1.8 35.3
06:20 1018 30.06 847 25.01 3.8 38.9 87 1.8 35.2
06:25 1018 30.06 847 25.01 3.9 39 87 1.9 35.4
06:30 1018 30.06 847 25.01 3.9 39.1 87 2 35.5
06:35 1018 30.06 847 25.01 4 39.2 87 2.1 35.8
06:40 1018 30.06 847 25.01 3.9 39.1 89 2.2 36
06:45 1018 30.06 847 25.01 4 39.2 89 2.4 36.2
06:50 1018 30.06 847 25.01 4.2 39.5 89 2.5 36.5
06:55 1018 30.06 847 25.01 4.4 39.9 87 2.5 36.5
07:00 1018 30.06 847 25.01 4.6 40.3 86 2.5 36.6
07:05 1018 30.06 847 25.01 4.7 40.5 86 2.5 36.5
07:10 1018 30.06 847 25.01 4.8 40.7 86 2.6 36.7
07:15 1018 30.06 847 25.01 4.9 40.8 86 2.7 36.9
07:20 1018 30.06 847 25.01 5 41 85 2.7 36.9
07:25 1018 30.06 847 25.01 5.2 41.3 85 2.8 37
07:30 1018 30.06 847 25.01 5.3 41.6 84 2.9 37.2
07:35 1018 30.06 847 25.01 5.5 41.9 85 3.1 37.6
07:40 1018 30.06 847 25.01 5.6 42 84 3.1 37.6
07:45 1018 30.06 847 25.01 5.7 42.2 84 3.1 37.6
07:50 1018 30.06 847 25.01 5.8 42.5 83 3.2 37.8
07:55 1018 30.06 847 25.01 6.1 42.9 83 3.4 38.2
08:00 1018 30.06 847 25.01 6.7 44 79 3.3 37.9
08:05 1018 30.06 847 25.01 7.1 44.8 79 3.7 38.6
08:10 1018 30.06 847 25.01 7.6 45.8 77 4 39.1
08:15 1018 30.06 847 25.01 7.7 45.9 76 3.8 38.8
08:20 1018 30.06 847 25.01 8.1 46.6 74 3.8 38.8
08:25 1018 30.06 847 25.01 8.2 46.7 76 4.3 39.7
08:30 1018 30.06 847 25.01 7.8 46.1 76 3.9 39
08:35 1018 30.06 847 25.01 7.8 46 76 3.9 39
08:40 1018 30.06 847 25.01 7.9 46.3 76 4 39.1
08:45 1018 30.06 847 25.01 8.3 46.9 73 3.7 38.6
08:50 1018 30.06 847 25.01 8.3 46.9 72 3.6 38.4
08:55 1018 30.06 847 25.01 8.9 48.1 68 3.3 38
09:00 1018 30.06 847 25.01 8.8 47.8 72 4 39.1
09:05 1018 30.06 847 25.01 9 48.2 72 4.3 39.8
09:10 1018 30.06 847 25.01 9 48.2 71 4 39.2
09:15 1018 30.06 847 25.01 9.5 49.1 70 4.4 39.9
09:20 1018 30.06 847 25.01 10.2 50.4 65 4 39.2
09:25 1018 30.06 847 25.01 9.9 49.8 68 4.3 39.7
09:30 1018 30.06 847 25.01 10.3 50.5 65 3.9 39.1
09:35 1018 30.06 847 25.01 11.2 52.1 62 4.3 39.7
09:40 1018 30.06 847 25.01 11.5 52.6 62 4.4 40
09:45 1018 30.06 847 25.01 11.3 52.4 63 4.6 40.4
09:50 1018 30.06 847 25.01 11.7 53.1 59 4 39.2
09:55 1018 30.06 847 25.01 12.8 55 55 4.1 39.4
10:00 1018 30.06 847 25.01 12.9 55.1 55 4 39.3
10:05 1018 30.06 847 25.01 12.8 55 55 4.1 39.4
10:10 1018 30.06 847 25.01 11.9 53.3 63 5 41
10:15 1018 30.06 847 25.01 11 51.7 66 5 40.9
10:20 1018 30.06 847 25.01 11 51.7 64 4.5 40.1
10:25 1018 30.06 847 25.01 10.8 51.5 67 4.9 40.8
10:30 1018 30.06 847 25.01 10.9 51.7 64 4.5 40
10:35 1018 30.06 847 25.01 10.9 51.7 66 4.8 40.6
10:40 1018 30.06 847 25.01 10.5 50.8 68 4.8 40.6
10:45 1018 30.06 847 25.01 10.8 51.5 64 4.3 39.7
10:50 1018 30.06 847 25.01 10.8 51.5 63 4.1 39.4
10:55 1018 30.06 847 25.01 10.8 51.4 64 4.2 39.6
11:00 1018 30.06 847 25.01 11.6 53 58 3.6 38.5
11:05 1017 30.03 847 25.01 11.9 53.4 55 3.3 37.9
11:10 1017 30.03 847 25.01 12.2 54 52 2.6 36.7
11:15 1017 30.03 846 24.98 11.9 53.3 53 2.7 36.9
11:20 1017 30.03 846 24.98 12.2 53.9 52 2.7 36.9
11:25 1017 30.03 847 25.01 12.5 54.5 56 4 39.3
11:30 1017 30.03 846 24.98 12.3 54.1 55 3.5 38.2
11:35 1017 30.03 846 24.98 12.3 54.1 54 3.3 37.9
11:40 1017 30.03 846 24.98 12.4 54.4 59 4.6 40.4
11:45 1017 30.03 846 24.98 12.2 54 60 4.8 40.7
11:50 1017 30.03 846 24.98 11.6 52.9 61 4.3 39.8
11:55 1017 30.03 846 24.98 10.9 51.7 66 4.9 40.8
12:00 1017 30.03 846 24.98 10.6 51 69 5.2 41.3
12:05 1017 30.03 847 25.01 10.3 50.5 67 4.6 40.2
12:10 1018 30.06 847 25.01 9.5 49 70 4.3 39.8
12:15 1018 30.06 847 25.01 8.3 46.9 75 4.1 39.4
12:20 1018 30.06 847 25.01 7.8 46.1 77 4 39.3
12:25 1018 30.06 848 25.04 7.6 45.6 78 4 39.3
12:30 1018 30.06 848 25.04 7.1 44.8 81 4.1 39.4
12:35 1018 30.06 848 25.04 6.6 43.9 85 4.2 39.6
12:40 1018 30.06 848 25.04 6.6 43.9 86 4.5 40
12:45 1018 30.06 847 25.01 6.3 43.3 88 4.4 39.9
12:50 1018 30.06 847 25.01 5.9 42.7 88 4.1 39.4
12:55 1018 30.06 847 25.01 5.9 42.6 87 3.9 38.9
13:00 1018 30.06 847 25.01 5.9 42.6 88 4.1 39.3
13:05 1018 30.06 847 25.01 5.7 42.3 87 3.6 38.6
13:10 1018 30.06 847 25.01 5.9 42.6 87 3.9 39
13:15 1018 30.06 847 25.01 6 42.7 85 3.7 38.6
13:20 1017 30.03 847 25.01 6.2 43.1 84 3.8 38.8
13:25 1017 30.03 847 25.01 6.5 43.7 84 4 39.3
13:30 1017 30.03 847 25.01 6.6 43.8 83 3.9 39
13:35 1017 30.03 847 25.01 6.6 44 86 4.5 40
13:40 1017 30.03 847 25.01 6.9 44.4 83 4.2 39.6
13:45 1017 30.03 847 25.01 7 44.6 81 3.9 39
13:50 1017 30.03 847 25.01 7.1 44.8 81 4.1 39.4
13:55 1017 30.03 847 25.01 7.3 45.2 80 4.1 39.4
14:00 1017 30.03 847 25.01 7.5 45.6 80 4.3 39.8
14:05 1017 30.03 847 25.01 7.8 46.1 76 3.9 39
14:10 1017 30.03 846 24.98 8.2 46.8 69 2.9 37.2
14:15 1017 30.03 846 24.98 8.6 47.6 71 3.7 38.7
14:20 1017 30.03 846 24.98 8.8 47.8 66 2.9 37.2
14:25 1017 30.03 846 24.98 8.7 47.7 69 3.3 38
14:30 1016 30 845 24.95 8.5 47.2 68 3 37.4
14:35 1016 30 845 24.95 8.7 47.6 67 2.8 37.1
14:40 1016 30 845 24.95 9.1 48.4 70 4 39.3
14:45 1016 30 846 24.98 9.5 49.1 63 2.8 37
14:50 1017 30.03 846 24.98 9.7 49.4 60 2.4 36.3
14:55 1017 30.03 846 24.98 9.7 49.4 62 2.8 37
15:00 1017 30.03 846 24.98 9.6 49.2 63 2.8 37.1
15:05 1017 30.03 846 24.98 9.6 49.3 61 2.5 36.5
15:10 1017 30.03 846 24.98 9.7 49.4 65 3.4 38.1
15:15 1017 30.03 846 24.98 9.6 49.3 64 3.1 37.6
15:20 1017 30.03 846 24.98 9.8 49.6 65 3.5 38.3
15:25 1017 30.03 846 24.98 9.9 49.9 64 3.4 38.2
15:30 1017 30.03 846 24.98 10.1 50.2 63 3.4 38.1
15:35 1017 30.03 846 24.98 10.2 50.3 61 3.1 37.6
15:40 1017 30.03 846 24.98 10.2 50.3 62 3.2 37.7
15:45 1017 30.03 846 24.98 10.2 50.3 63 3.4 38.1
15:50 1017 30.03 846 24.98 10.1 50.2 65 3.9 38.9
15:55 1017 30.03 846 24.98 10.2 50.3 63 3.5 38.4
16:00 1017 30.03 846 24.98 10.1 50.1 63 3.4 38.1
16:05 1017 30.03 846 24.98 9.9 49.8 67 4 39.3
16:10 1017 30.03 846 24.98 9.9 49.8 67 4.1 39.4
16:15 1016 30 846 24.98 9.8 49.7 68 4.2 39.6
16:20 1016 30 846 24.98 9.8 49.6 68 4.2 39.5
16:25 1016 30 846 24.98 9.7 49.4 70 4.6 40.2
16:30 1016 30 846 24.98 9.6 49.3 70 4.5 40.1
16:35 1016 30 846 24.98 9.6 49.2 71 4.5 40.1
16:40 1016 30 846 24.98 9.2 48.5 70 4 39.2
16:45 1016 30 846 24.98 8.9 48.1 70 3.7 38.7
16:50 1016 30 846 24.98 8.7 47.7 72 3.9 39
16:55 1016 30 846 24.98 8.6 47.5 73 4 39.2
17:00 1017 30.03 846 24.98 8.5 47.3 72 3.8 38.8
17:05 1017 30.03 846 24.98 8.3 47 73 3.7 38.6
17:10 1017 30.03 846 24.98 8.2 46.8 73 3.6 38.5
17:15 1017 30.03 846 24.98 8.1 46.6 73 3.6 38.4
17:20 1017 30.03 846 24.98 8 46.3 74 3.6 38.5
17:25 1017 30.03 846 24.98 7.9 46.1 73 3.4 38.1
17:30 1017 30.03 846 24.98 7.7 45.8 74 3.2 37.8
17:35 1017 30.03 846 24.98 7.6 45.6 75 3.3 38
17:40 1017 30.03 846 24.98 7.5 45.5 74 3.3 37.9
17:45 1017 30.03 846 24.98 7.5 45.5 74 3.2 37.7
17:50 1017 30.03 846 24.98 7.5 45.5 73 3.1 37.5
17:55 1017 30.03 846 24.98 7.5 45.5 73 3 37.5
18:00 1017 30.03 846 24.98 7.5 45.5 74 3.3 37.9
18:05 1017 30.03 846 24.98 7.5 45.4 75 3.4 38.1
18:10 1017 30.03 846 24.98 7.4 45.3 76 3.4 38.2
18:15 1017 30.03 847 25.01 7.4 45.3 76 3.4 38.1
18:20 1018 30.06 847 25.01 7.5 45.4 77 3.8 38.8
18:25 1018 30.06 847 25.01 7.4 45.2 79 3.9 39
18:30 1018 30.06 848 25.04 6.3 43.4 82 3.5 38.3
18:35 1018 30.06 848 25.04 6 42.8 85 3.6 38.5
18:40 1019 30.09 848 25.04 6 42.8 87 4 39.1
18:45 1019 30.09 848 25.04 6 42.8 88 4.1 39.4
18:50 1019 30.09 848 25.04 6.1 42.9 87 4.1 39.4
18:55 1019 30.09 848 25.04 5.9 42.7 87 4 39.2
19:00 1019 30.09 848 25.04 5.9 42.5 88 4 39.2
19:05 1019 30.09 848 25.04 5.8 42.5 88 4 39.2
19:10 1019 30.09 848 25.04 5.8 42.4 89 4.2 39.5
19:15 1019 30.09 848 25.04 5.9 42.5 88 4.1 39.3
19:20 1019 30.09 848 25.04 5.9 42.6 88 4.1 39.4
19:25 1019 30.09 848 25.04 6 42.8 88 4.2 39.5
19:30 1019 30.09 848 25.04 6 42.9 86 3.9 38.9
19:35 1019 30.09 848 25.04 6.1 43 85 3.7 38.7
19:40 1019 30.09 848 25.04 6.3 43.3 85 3.9 39.1
19:45 1019 30.09 848 25.04 6.2 43.1 87 4.1 39.4
19:50 1019 30.09 848 25.04 6.1 42.9 87 4.1 39.3
19:55 1019 30.09 848 25.04 6 42.8 87 3.9 39.1
20:00 1019 30.09 848 25.04 6.1 43 86 4 39.1
20:05 1019 30.09 848 25.04 6.1 43.1 86 4 39.2
20:10 1019 30.09 848 25.04 6 42.8 87 4 39.2
20:15 1019 30.09 848 25.04 6 42.9 87 4 39.2
20:20 1019 30.09 848 25.04 6.1 43 86 4 39.2
20:25 1019 30.09 848 25.04 6.2 43.1 86 4 39.2
20:30 1019 30.09 848 25.04 6.3 43.3 85 4 39.1
20:35 1019 30.09 849 25.07 6.3 43.3 85 3.9 39
20:40 1019 30.09 849 25.07 6.3 43.4 83 3.7 38.7
20:45 1019 30.09 849 25.07 6.4 43.5 83 3.7 38.6
20:50 1019 30.09 849 25.07 6.4 43.4 81 3.3 37.9
20:55 1019 30.09 849 25.07 6.3 43.3 81 3.3 38
21:00 1020 30.12 849 25.07 6.2 43.1 83 3.5 38.2
21:05 1020 30.12 849 25.07 6 42.8 85 3.7 38.6
21:10 1020 30.12 849 25.07 5.8 42.4 85 3.5 38.4
21:15 1020 30.12 849 25.07 5.7 42.3 85 3.5 38.2
21:20 1020 30.12 849 25.07 5.8 42.4 85 3.4 38.2
21:25 1020 30.12 849 25.07 5.9 42.6 85 3.5 38.4
21:30 1020 30.12 849 25.07 5.9 42.7 86 3.8 38.9
21:35 1020 30.12 849 25.07 5.9 42.7 86 3.8 38.9
21:40 1020 30.12 849 25.07 6 42.7 86 3.9 38.9
21:45 1020 30.12 849 25.07 5.9 42.7 87 3.9 39.1
21:50 1020 30.12 849 25.07 5.9 42.7 86 3.8 38.9
21:55 1020 30.12 849 25.07 6 42.8 86 3.8 38.8
22:00 1020 30.12 849 25.07 6 42.9 86 3.9 39.1
22:05 1020 30.12 849 25.07 6 42.9 85 3.8 38.8
22:10 1020 30.12 849 25.07 6.1 42.9 83 3.3 38
22:15 1020 30.12 849 25.07 6 42.8 83 3.4 38
22:20 1020 30.12 849 25.07 5.9 42.6 83 3.3 37.9
22:25 1020 30.12 849 25.07 5.8 42.5 84 3.3 37.9
22:30 1020 30.12 849 25.07 5.8 42.5 85 3.5 38.2
22:35 1020 30.12 849 25.07 5.8 42.5 84 3.3 38
22:40 1020 30.12 849 25.07 5.9 42.6 84 3.5 38.3
22:45 1020 30.12 849 25.07 5.9 42.5 85 3.6 38.5
22:50 1020 30.12 849 25.07 5.9 42.7 85 3.6 38.5
22:55 1020 30.12 849 25.07 6.1 43 83 3.5 38.3
23:00 1020 30.12 849 25.07 6.2 43.2 83 3.5 38.4
23:05 1020 30.12 849 25.07 6.3 43.4 81 3.4 38.1
23:10 1020 30.12 850 25.1 6.4 43.5 81 3.3 38
23:15 1020 30.12 850 25.1 6.4 43.5 81 3.4 38.2
23:20 1020 30.12 850 25.1 6.4 43.6 82 3.6 38.4
23:25 1020 30.12 850 25.1 6.3 43.4 84 3.9 39.1
23:30 1020 30.12 850 25.1 6.1 43 86 4 39.1
23:35 1020 30.12 850 25.1 5.9 42.7 87 4 39.2
23:40 1020 30.12 850 25.1 5.8 42.4 88 4 39.1
23:45 1020 30.12 850 25.1 5.7 42.2 89 3.9 39.1
23:50 1020 30.12 850 25.1 5.6 42.2 88 3.8 38.9
23:55 1020 30.12 850 25.1 5.7 42.2 87 3.7 38.7
24:00 1020 30.12 850 25.1 5.8 42.4 88 4 39.2